Detalhes do Voo

Voltar

 DETALHES DO VÔO

Piloto: GLD265 Hugo d. Aeronave: CARENADO PC12 WHITE Distância: 311NM
Origem: SBMG Destino: SBSP Duração: 1.25
Validação: Validado Tipo: Regular Matrícula: PR-GPH
ZFW: 2621 Block Fuel/Init FOB 268/0 Combustível em Voo 257
Passageiros: 8 Carga: 931 Alternativo: SBCT
Hora da Decolagem: Velocidade de Cruzeiro: 190 Nível de Voo: FL140
Regra Visual: IFR ICAO da Aeronave: PC12 Unidade de Peso: Kg
Data: 23/09/2018 Observação: Rede: VATSIM
Acidentou?: Não Comentários do Validador: Pontuação do Voo 104.99

 ROTA

ROTA LON1B LON SCB STN CGO
REMARKS OPR//GOLD VIRTUAL AIRLINES RMK/PIC265 RMK WWW.GOLDVIRTUALAIRLINES.COM.BR

 PENALIDADES DO VOO

Para entender como cada item é pontuado, consulte as regras de avaliação.

Nenhuma penalidade registrada para este voo.

 ANÁLISE DO POUSO

Vento durante o pouso: 156º/4 kt Proa durante o pouso: 231
V/S do Pouso: -153.79 ft/min IAS do Pouso: 76.52 kt
Força G no pouso: 1.3 G Bank no pouso: -0.7
Pitch no Pouso -1.7 Flaps no Pouso 3
Nav Lights ON Landing Lights ON
Beacon Lights ON Strobe Lights ON

 MAPA DO VOO

 PERFIL VERTICAL DO VOO

 EVENTOS PRINCIPAIS DO VOO

DATAEVENTOIASALTITUDE
2018-09-23 23:02:11 SIM ACARS version 1.4.001793
2018-09-23 23:02:12 BOARDING01793
2018-09-23 23:13:03 STARTING ENGINE 1 01793
2018-09-23 23:15:41 TAXI TO THE RWY 121793
2018-09-23 23:18:46 FLAPS SET TO POSITION 121793
2018-09-23 23:22:36 ROLLING FOR TAKE OFF441793
2018-09-23 23:22:56 TAKE OFF891794
2018-09-23 23:23:10 GEAR UP941978
2018-09-23 23:24:32 FLAPS SET TO POSITION 01513643
2018-09-23 23:36:05 CRUISE18314106
2018-09-23 23:49:28 DESCEND17513828
2018-09-23 23:54:09 CLIMBING16111294
2018-09-23 23:57:39 CRUISE19814235
2018-09-24 00:24:10 DESCEND20313761
2018-09-24 00:28:28 LIGHTS OFF BELOW 10000 ft1919498
2018-09-24 00:30:51 CRUISE1757755
2018-09-24 00:33:11 DESCEND1877428
2018-09-24 00:36:05 CRUISE1885755
2018-09-24 00:39:35 GEAR DOWN1485776
2018-09-24 00:40:35 DESCEND1335283
2018-09-24 00:40:45 FLAPS SET TO POSITION 11375156
2018-09-24 00:42:31 FLAPS SET TO POSITION 21373934
2018-09-24 00:43:08 FLAPS SET TO POSITION 31133559
2018-09-24 00:44:57 LANDING772638
2018-09-24 00:45:53 FLAPS SET TO POSITION 2452636
2018-09-24 00:45:54 FLAPS SET TO POSITION 1432636
2018-09-24 00:45:54 FLAPS SET TO POSITION 0422636
2018-09-24 00:46:03 TAXI TO THE GATE202636
2018-09-24 00:47:59 BEACON LIGHT OFF & ENGINE ON12636
2018-09-24 00:48:39 STOPPING ENGINE 1 12636

 DADOS DO ACARS

DATA IAS GS ALTITUDE COMBUSTÍVEL USADO OAT FASE DO VOO
2018-09-23 23:03:11 0 0 1793 1 32 BOARDING
2018-09-23 23:04:11 0 0 1793 1 32 BOARDING
2018-09-23 23:05:11 0 0 1793 1 32 BOARDING
2018-09-23 23:06:11 0 0 1793 1 32 BOARDING
2018-09-23 23:07:11 0 0 1793 1 32 BOARDING
2018-09-23 23:08:18 0 0 1793 1 32 BOARDING
2018-09-23 23:09:13 0 0 1793 1 32 BOARDING
2018-09-23 23:10:11 0 0 1793 1 32 BOARDING
2018-09-23 23:11:11 0 0 1793 1 32 BOARDING
2018-09-23 23:12:13 0 0 1793 1 32 BOARDING
2018-09-23 23:13:11 0 0 1793 1 32 BOARDING
2018-09-23 23:14:11 0 0 1793 2 32 BOARDING
2018-09-23 23:15:11 0 1 1793 2 32 BOARDING
2018-09-23 23:16:11 9 10 1793 3 32 TAXI TO THE RWY
2018-09-23 23:17:11 11 14 1793 3 32 TAXI TO THE RWY
2018-09-23 23:18:12 13 12 1793 4 32 TAXI TO THE RWY
2018-09-23 23:19:11 13 15 1793 5 32 TAXI TO THE RWY
2018-09-23 23:20:11 12 14 1793 5 32 TAXI TO THE RWY
2018-09-23 23:21:12 6 8 1793 6 32 TAXI TO THE RWY
2018-09-23 23:22:11 1 0 1793 7 32 TAXI TO THE RWY
2018-09-23 23:23:11 94 98 2000 10 32 CLIMBING
2018-09-23 23:24:11 136 146 3263 14 32 CLIMBING
2018-09-23 23:25:11 177 193 4254 18 32 CLIMBING
2018-09-23 23:26:11 189 209 5275 23 30 CLIMBING
2018-09-23 23:27:11 190 214 6279 27 30 CLIMBING
2018-09-23 23:28:11 189 216 7280 31 30 CLIMBING
2018-09-23 23:29:14 185 218 8286 35 31 CLIMBING
2018-09-23 23:30:11 183 219 9192 39 31 CLIMBING
2018-09-23 23:31:11 179 220 10200 43 32 CLIMBING
2018-09-23 23:32:13 176 221 11200 46 32 CLIMBING
2018-09-23 23:33:12 172 220 12146 50 33 CLIMBING
2018-09-23 23:34:11 169 219 12921 53 33 CLIMBING
2018-09-23 23:35:12 165 218 13921 56 33 CLIMBING
2018-09-23 23:36:11 185 244 14104 60 33 CRUISE
2018-09-23 23:37:11 193 254 14099 63 33 CRUISE
2018-09-23 23:38:12 195 256 14100 67 33 CRUISE
2018-09-23 23:39:11 195 257 14099 70 33 CRUISE
2018-09-23 23:40:12 194 257 14100 73 33 CRUISE
2018-09-23 23:41:13 195 257 14099 76 33 CRUISE
2018-09-23 23:42:12 196 258 14098 79 33 CRUISE
2018-09-23 23:43:11 195 258 14098 83 33 CRUISE
2018-09-23 23:44:12 196 257 14100 86 33 CRUISE
2018-09-23 23:45:12 195 257 14098 89 33 CRUISE
2018-09-23 23:46:12 196 258 14098 93 33 CRUISE
2018-09-23 23:47:12 195 258 14099 96 33 CRUISE
2018-09-23 23:48:11 195 258 14098 100 33 CRUISE
2018-09-23 23:49:12 179 237 14032 102 33 CRUISE
2018-09-23 23:50:12 168 220 13247 104 33 DESCEND
2018-09-23 23:51:12 165 213 12448 105 33 DESCEND
2018-09-23 23:52:12 167 211 11690 106 32 DESCEND
2018-09-23 23:53:12 168 210 10975 107 32 DESCEND
2018-09-23 23:54:12 162 203 11356 110 32 CLIMBING
2018-09-23 23:55:12 176 225 12561 114 32 CLIMBING
2018-09-23 23:56:12 186 242 13449 118 32 CLIMBING
2018-09-23 23:57:12 187 249 14229 122 32 CLIMBING
2018-09-23 23:58:12 205 269 14231 126 32 CRUISE
2018-09-23 23:59:12 207 274 14230 131 32 CRUISE
2018-09-24 00:00:12 209 275 14227 135 32 CRUISE
2018-09-24 00:01:12 210 275 14228 139 32 CRUISE
2018-09-24 00:02:12 209 275 14229 143 32 CRUISE
2018-09-24 00:03:12 209 275 14229 147 31 CRUISE
2018-09-24 00:04:12 209 275 14227 151 31 CRUISE
2018-09-24 00:05:12 210 275 14229 155 31 CRUISE
2018-09-24 00:06:16 209 276 14229 159 31 CRUISE
2018-09-24 00:07:12 210 276 14228 163 31 CRUISE
2018-09-24 00:08:12 209 276 14227 167 31 CRUISE
2018-09-24 00:09:12 209 276 14228 171 31 CRUISE
2018-09-24 00:10:12 211 275 14257 175 30 CRUISE
2018-09-24 00:11:12 209 275 14257 179 30 CRUISE
2018-09-24 00:12:12 210 275 14257 183 30 CRUISE
2018-09-24 00:13:12 210 276 14257 187 30 CRUISE
2018-09-24 00:14:12 210 276 14257 191 30 CRUISE
2018-09-24 00:15:12 210 275 14257 195 29 CRUISE
2018-09-24 00:16:12 210 275 14257 199 28 CRUISE
2018-09-24 00:17:12 210 275 14257 203 28 CRUISE
2018-09-24 00:18:12 211 274 14265 207 28 CRUISE
2018-09-24 00:19:12 210 274 14286 211 28 CRUISE
2018-09-24 00:20:12 211 274 14286 215 27 CRUISE
2018-09-24 00:21:12 211 274 14286 219 27 CRUISE
2018-09-24 00:22:12 211 274 14287 222 27 CRUISE
2018-09-24 00:23:12 211 274 14285 225 27 CRUISE
2018-09-24 00:24:12 201 259 13732 228 27 DESCEND
2018-09-24 00:25:12 188 237 12736 230 27 DESCEND
2018-09-24 00:26:12 186 230 11748 231 26 DESCEND
2018-09-24 00:27:12 188 228 10758 233 26 DESCEND
2018-09-24 00:28:12 190 225 9766 235 26 DESCEND
2018-09-24 00:29:12 192 224 8765 236 26 DESCEND
2018-09-24 00:30:12 194 222 7767 238 26 DESCEND
2018-09-24 00:31:12 172 200 7686 240 26 CRUISE
2018-09-24 00:32:12 171 200 7742 243 26 CRUISE
2018-09-24 00:33:12 187 212 7412 245 26 DESCEND
2018-09-24 00:34:12 198 223 6704 247 26 DESCEND
2018-09-24 00:35:12 203 226 5925 249 26 DESCEND
2018-09-24 00:36:12 185 205 5768 252 26 CRUISE
2018-09-24 00:37:12 179 200 5780 254 26 CRUISE
2018-09-24 00:38:20 164 182 5774 256 26 CRUISE
2018-09-24 00:39:12 152 172 5779 258 26 CRUISE
2018-09-24 00:40:13 120 132 5673 259 27 CRUISE
2018-09-24 00:41:12 123 134 5100 261 27 DESCEND
2018-09-24 00:42:13 137 146 4197 262 26 DESCEND
2018-09-24 00:43:13 108 113 3517 264 26 DESCEND
2018-09-24 00:44:12 92 95 3001 265 26 DESCEND
2018-09-24 00:45:31 71 72 2640 266 26 LANDED
2018-09-24 00:46:30 25 22 2636 267 26 TAXI TO THE GATE
2018-09-24 00:47:30 11 15 2636 268 26 TAXI TO THE GATE
2018-09-24 00:48:30 0 0 2636 268 26 TAXI TO THE GATE